createdAt,value
2022-09-05T00:01:57.480Z,100.00
2022-09-05T00:04:47.086Z,100.00
2022-09-05T00:07:37.485Z,100.00
2022-09-05T00:10:24.421Z,100.00
2022-09-05T00:13:07.022Z,100.00
2022-09-05T00:16:30.227Z,100.00
2022-09-05T00:24:17.161Z,100.00
2022-09-05T00:24:34.755Z,100.00
2022-09-05T00:28:25.948Z,100.00
2022-09-05T00:31:53.814Z,100.00
2022-09-05T00:34:47.519Z,100.00
2022-09-05T00:37:26.605Z,100.00
2022-09-05T00:40:27.418Z,100.00
2022-09-05T00:42:58.300Z,100.00
2022-09-05T00:45:31.672Z,100.00
2022-09-05T00:48:08.167Z,100.00
2022-09-05T00:50:56.644Z,100.00
2022-09-05T00:53:40.219Z,100.00
2022-09-05T00:56:43.913Z,100.00
2022-09-05T00:59:28.569Z,100.00
2022-09-05T01:02:07.056Z,100.00
2022-09-05T01:05:01.163Z,100.00
2022-09-05T01:07:46.618Z,100.00
2022-09-05T01:10:35.040Z,100.00
2022-09-05T01:13:23.490Z,100.00
2022-09-05T01:16:16.027Z,100.00
2022-09-05T01:18:47.863Z,100.00
2022-09-05T01:21:20.072Z,100.00
2022-09-05T01:23:50.408Z,100.00
2022-09-05T01:26:33.536Z,100.00
2022-09-05T01:29:17.872Z,100.00
2022-09-05T01:32:09.808Z,100.00
2022-09-05T01:34:57.369Z,100.00
2022-09-05T01:37:47.934Z,100.00
2022-09-05T01:40:36.711Z,100.00
2022-09-05T01:43:06.149Z,100.00
2022-09-05T01:45:52.623Z,100.00
2022-09-05T01:48:34.025Z,100.00
2022-09-05T01:51:31.681Z,100.00
2022-09-05T01:54:24.626Z,100.00
2022-09-05T01:56:53.356Z,100.00
2022-09-05T01:59:31.279Z,100.00
2022-09-05T02:02:13.868Z,100.00
2022-09-05T02:04:46.281Z,100.00
2022-09-05T02:07:30.151Z,100.00
2022-09-05T02:10:12.840Z,100.00
2022-09-05T02:12:58.443Z,100.00
2022-09-05T02:15:41.885Z,100.00
2022-09-05T02:18:19.768Z,100.00
2022-09-05T02:20:53.503Z,100.00
2022-09-05T02:23:41.836Z,100.00
2022-09-05T02:26:28.929Z,100.00
2022-09-05T02:29:11.287Z,100.00
2022-09-05T02:31:48.926Z,100.00
2022-09-05T02:34:38.698Z,100.00
2022-09-05T02:37:14.269Z,100.00
2022-09-05T02:45:09.268Z,100.00
2022-09-05T02:45:21.234Z,100.00
2022-09-05T02:46:12.280Z,100.00
2022-09-05T02:49:04.889Z,100.00
2022-09-05T02:57:26.917Z,100.00
2022-09-05T02:57:37.041Z,100.00
2022-09-05T02:58:05.242Z,100.00
2022-09-05T03:00:48.109Z,100.00
2022-09-05T03:03:42.498Z,100.00
2022-09-05T03:06:34.393Z,100.00
2022-09-05T03:09:40.047Z,100.00
2022-09-05T03:12:33.811Z,100.00
2022-09-05T03:15:24.777Z,100.00
2022-09-05T03:18:20.952Z,100.00
2022-09-05T03:21:23.137Z,100.00
2022-09-05T03:24:23.399Z,100.00
2022-09-05T03:27:17.539Z,100.00
2022-09-05T03:29:58.633Z,100.00
2022-09-05T03:32:49.988Z,100.00
2022-09-05T03:35:25.396Z,100.00
2022-09-05T03:38:06.601Z,100.00
2022-09-05T03:41:01.849Z,100.00
2022-09-05T03:43:40.386Z,100.00
2022-09-05T03:46:29.293Z,100.00
2022-09-05T03:49:20.124Z,100.00
2022-09-05T03:57:08.303Z,100.00
2022-09-05T03:57:12.689Z,100.00
2022-09-05T03:58:55.507Z,100.00
2022-09-05T04:03:12.926Z,100.00
2022-09-05T04:08:16.192Z,100.00
2022-09-05T04:08:17.421Z,100.00
2022-09-05T04:10:40.568Z,100.00
2022-09-05T04:13:26.852Z,100.00
2022-09-05T04:16:17.161Z,100.00
2022-09-05T04:19:08.079Z,100.00
2022-09-05T04:21:48.291Z,100.00
2022-09-05T04:24:45.628Z,100.00
2022-09-05T04:27:27.918Z,100.00
2022-09-05T04:30:37.918Z,100.00
2022-09-05T04:33:03.047Z,100.00
2022-09-05T04:35:45.871Z,100.00
2022-09-05T04:38:33.693Z,100.00
2022-09-05T04:41:04.436Z,100.00
2022-09-05T04:43:48.182Z,100.00
2022-09-05T04:46:30.810Z,100.00
2022-09-05T04:49:07.642Z,100.00
2022-09-05T04:51:46.153Z,100.00
2022-09-05T04:54:50.940Z,100.00
2022-09-05T04:57:20.275Z,100.00
2022-09-05T05:06:02.263Z,100.00
2022-09-05T05:06:09.427Z,100.00
2022-09-05T05:06:20.301Z,100.00
2022-09-05T05:08:45.617Z,100.00
2022-09-05T05:18:02.135Z,100.00
2022-09-05T05:18:06.169Z,100.00
2022-09-05T05:18:14.074Z,100.00
2022-09-05T05:20:43.025Z,100.00
2022-09-05T05:23:08.292Z,100.00
2022-09-05T05:25:53.273Z,100.00
2022-09-05T05:28:28.935Z,100.00
2022-09-05T05:31:01.678Z,98.32
2022-09-05T05:33:35.487Z,97.75
2022-09-05T05:36:06.970Z,96.29
2022-09-05T05:38:57.367Z,96.41
2022-09-05T05:41:44.029Z,97.21
2022-09-05T05:44:17.426Z,96.72
2022-09-05T05:47:18.850Z,97.70
2022-09-05T05:50:02.858Z,97.31
2022-09-05T05:52:45.054Z,98.14
2022-09-05T05:55:51.695Z,99.36
2022-09-05T05:58:36.068Z,100.00
2022-09-05T06:01:38.836Z,100.00
2022-09-05T06:04:44.688Z,100.00
2022-09-05T06:07:50.989Z,100.00
2022-09-05T06:14:50.807Z,100.00
2022-09-05T06:14:56.249Z,100.00
2022-09-05T06:16:49.709Z,100.00
2022-09-05T06:22:05.779Z,100.00
2022-09-05T06:23:39.786Z,100.00
2022-09-05T06:26:25.274Z,100.00
2022-09-05T06:28:56.373Z,100.00
2022-09-05T06:32:17.559Z,100.00
2022-09-05T06:35:09.782Z,100.00
2022-09-05T06:38:02.204Z,99.95
2022-09-05T06:40:36.370Z,100.00
2022-09-05T06:43:14.801Z,100.00
2022-09-05T06:45:58.594Z,100.00
2022-09-05T06:48:46.063Z,100.00
2022-09-05T06:52:27.966Z,100.00
2022-09-05T06:55:23.951Z,100.00
2022-09-05T06:58:27.786Z,98.71
2022-09-05T07:00:57.109Z,99.84
2022-09-05T07:03:33.102Z,100.00
2022-09-05T07:06:19.492Z,99.76
2022-09-05T07:08:53.717Z,98.12
2022-09-05T07:11:44.837Z,98.82
2022-09-05T07:14:24.814Z,98.30
2022-09-05T07:16:56.197Z,97.40
2022-09-05T07:19:29.295Z,96.69
2022-09-05T07:22:29.598Z,97.21
2022-09-05T07:24:56.553Z,97.13
2022-09-05T07:27:34.347Z,96.31
2022-09-05T07:30:21.401Z,95.55
2022-09-05T07:32:53.384Z,97.24
2022-09-05T07:35:26.269Z,96.53
2022-09-05T07:38:15.044Z,95.54
2022-09-05T07:40:46.578Z,96.31
2022-09-05T07:43:22.367Z,96.21
2022-09-05T07:45:56.501Z,94.81
2022-09-05T07:48:35.134Z,93.59
2022-09-05T07:56:28.648Z,92.59
2022-09-05T07:57:00.799Z,91.74
2022-09-05T07:59:43.106Z,91.42
2022-09-05T08:02:12.802Z,90.95
2022-09-05T08:04:41.845Z,90.11
2022-09-05T08:07:47.346Z,89.99
2022-09-05T08:10:09.474Z,90.38
2022-09-05T08:13:22.807Z,89.29
2022-09-05T08:16:11.050Z,89.49
2022-09-05T08:18:49.944Z,87.58
2022-09-05T08:21:43.719Z,86.89
2022-09-05T08:24:13.582Z,86.80
2022-09-05T08:26:47.202Z,88.06
2022-09-05T08:29:20.209Z,86.77
2022-09-05T08:31:52.418Z,86.21
2022-09-05T08:34:50.998Z,85.89
2022-09-05T08:37:21.532Z,86.09
2022-09-05T08:40:11.670Z,85.78
2022-09-05T08:42:58.983Z,85.44
2022-09-05T08:46:36.041Z,85.03
2022-09-05T08:48:56.297Z,82.77
2022-09-05T08:51:29.892Z,81.11
2022-09-05T08:54:24.693Z,82.14
2022-09-05T08:57:03.249Z,81.71
2022-09-05T09:00:19.379Z,82.14
2022-09-05T09:02:49.204Z,82.70
2022-09-05T09:05:18.689Z,81.60
2022-09-05T09:08:15.844Z,81.96
2022-09-05T09:10:57.641Z,81.05
2022-09-05T09:13:53.218Z,81.42
2022-09-05T09:16:25.922Z,81.51
2022-09-05T09:18:52.345Z,80.43
2022-09-05T09:21:34.187Z,80.02
2022-09-05T09:24:33.250Z,78.23
2022-09-05T09:27:09.189Z,78.11
2022-09-05T09:29:42.047Z,77.30
2022-09-05T09:32:14.987Z,75.95
2022-09-05T09:34:47.569Z,75.37
2022-09-05T09:37:50.747Z,75.58
2022-09-05T09:40:36.540Z,73.73
2022-09-05T09:43:27.235Z,72.81
2022-09-05T09:46:23.266Z,72.48
2022-09-05T09:49:21.644Z,72.32
2022-09-05T09:51:54.920Z,69.93
2022-09-05T09:54:45.341Z,69.85
2022-09-05T09:57:32.626Z,68.34
2022-09-05T10:00:21.096Z,67.43
2022-09-05T10:04:07.325Z,67.42
2022-09-05T10:10:45.322Z,66.51
2022-09-05T10:10:50.760Z,66.06
2022-09-05T10:12:23.427Z,65.29
2022-09-05T10:15:04.977Z,65.40
2022-09-05T10:18:20.366Z,65.70
2022-09-05T10:21:21.695Z,65.62
2022-09-05T10:24:11.142Z,65.02
2022-09-05T10:26:37.568Z,66.06
2022-09-05T10:29:30.168Z,66.57
2022-09-05T10:35:05.310Z,65.23
2022-09-05T10:35:13.681Z,63.87
2022-09-05T10:37:54.789Z,63.36
2022-09-05T10:40:24.181Z,62.99
2022-09-05T10:43:02.453Z,62.92
2022-09-05T10:45:38.604Z,61.66
2022-09-05T10:48:26.682Z,62.72
2022-09-05T10:51:03.237Z,62.77
2022-09-05T10:53:39.250Z,61.43
2022-09-05T10:56:14.675Z,62.11
2022-09-05T11:01:59.310Z,61.93
2022-09-05T11:02:30.353Z,61.62
2022-09-05T11:04:58.507Z,61.61
2022-09-05T11:08:01.773Z,60.24
2022-09-05T11:11:03.185Z,60.51
2022-09-05T11:13:46.432Z,58.87
2022-09-05T11:16:24.490Z,58.33
2022-09-05T11:19:07.305Z,58.51
2022-09-05T11:22:22.143Z,58.53
2022-09-05T11:25:00.835Z,58.85
2022-09-05T11:27:40.900Z,58.16
2022-09-05T11:30:29.626Z,57.72
2022-09-05T11:39:35.099Z,56.42
2022-09-05T11:40:06.568Z,56.77
2022-09-05T11:40:07.047Z,55.55
2022-09-05T11:42:09.937Z,55.91
2022-09-05T11:44:42.659Z,55.37
2022-09-05T11:47:37.058Z,55.21
2022-09-05T11:50:29.586Z,55.20
2022-09-05T11:53:38.184Z,52.71
2022-09-05T11:56:41.873Z,53.49
2022-09-05T11:59:37.095Z,51.79
2022-09-05T12:02:16.932Z,51.31
2022-09-05T12:05:48.993Z,49.39
2022-09-05T12:08:38.660Z,49.36
2022-09-05T12:11:14.113Z,50.79
2022-09-05T12:13:48.093Z,50.90
2022-09-05T12:16:59.043Z,50.29
2022-09-05T12:19:34.821Z,48.61
2022-09-05T12:22:24.013Z,45.55
2022-09-05T12:25:25.146Z,43.63
2022-09-05T12:28:48.396Z,41.40
2022-09-05T12:32:50.276Z,40.38
2022-09-05T12:36:04.976Z,38.47
2022-09-05T12:40:35.535Z,37.69
2022-09-05T12:41:36.240Z,37.52
2022-09-05T12:43:53.103Z,37.39
2022-09-05T12:48:38.912Z,39.92
2022-09-05T12:51:08.991Z,40.29
2022-09-05T12:53:50.638Z,40.24
2022-09-05T13:00:36.267Z,38.87
2022-09-05T13:02:58.987Z,41.07
2022-09-05T13:03:12.591Z,41.46
2022-09-05T13:05:18.569Z,41.07
2022-09-05T13:07:56.122Z,41.06
2022-09-05T13:14:47.370Z,40.49
2022-09-05T13:15:02.615Z,41.08
2022-09-05T13:16:23.023Z,40.72
2022-09-05T13:19:04.347Z,41.31
2022-09-05T13:21:31.571Z,41.66
2022-09-05T13:24:14.372Z,40.57
2022-09-05T13:26:59.469Z,40.50
2022-09-05T13:29:37.223Z,41.33
2022-09-05T13:38:01.201Z,41.09
2022-09-05T13:38:02.272Z,40.96
2022-09-05T13:38:37.710Z,39.86
2022-09-05T13:40:58.292Z,38.66
2022-09-05T13:43:30.264Z,38.44
2022-09-05T13:46:17.864Z,38.60
2022-09-05T13:52:05.617Z,36.12
2022-09-05T13:54:51.110Z,37.37
2022-09-05T13:57:39.683Z,39.98
2022-09-05T14:00:26.751Z,40.48
2022-09-05T14:03:38.748Z,40.83
2022-09-05T14:06:48.650Z,40.90
2022-09-05T14:09:57.775Z,40.93
2022-09-05T14:13:00.417Z,40.16
2022-09-05T14:15:52.243Z,39.40
2022-09-05T14:19:02.228Z,39.55
2022-09-05T14:21:31.780Z,39.82
2022-09-05T14:24:11.658Z,40.13
2022-09-05T14:27:00.222Z,40.76
2022-09-05T14:29:38.920Z,39.74
2022-09-05T14:37:46.202Z,39.89
2022-09-05T14:38:00.828Z,38.94
2022-09-05T14:38:56.883Z,40.29
2022-09-05T14:41:37.313Z,38.99
2022-09-05T14:44:22.047Z,39.08
2022-09-05T14:46:57.425Z,39.14
2022-09-05T14:49:51.098Z,39.00
2022-09-05T14:52:30.378Z,37.69
2022-09-05T15:02:45.187Z,38.97
2022-09-05T15:02:47.894Z,38.86
2022-09-05T15:06:33.277Z,38.82
2022-09-05T15:12:18.208Z,38.67
2022-09-05T15:12:20.853Z,38.23
2022-09-05T15:14:36.442Z,37.86
2022-09-05T15:17:05.726Z,37.94
2022-09-05T15:20:05.562Z,38.14
2022-09-05T15:22:36.361Z,38.35
2022-09-05T15:25:12.269Z,38.58
2022-09-05T15:27:43.873Z,38.95
2022-09-05T15:30:21.593Z,37.77
2022-09-05T15:32:50.568Z,37.57
2022-09-05T15:35:36.565Z,37.81
2022-09-05T15:38:30.717Z,38.44
2022-09-05T15:41:19.852Z,39.16
2022-09-05T15:44:03.061Z,38.60
2022-09-05T15:47:03.512Z,37.59
2022-09-05T15:49:35.779Z,38.27
2022-09-05T15:52:29.316Z,38.46
2022-09-05T15:55:01.565Z,37.98
2022-09-05T15:57:35.415Z,38.06
2022-09-05T16:00:09.045Z,38.35
2022-09-05T16:02:45.249Z,38.41
2022-09-05T16:10:36.492Z,38.10
2022-09-05T16:10:39.495Z,38.03
2022-09-05T16:12:09.286Z,37.63
2022-09-05T16:14:39.667Z,37.48
2022-09-05T16:23:18.737Z,38.11
2022-09-05T16:23:24.442Z,38.11
2022-09-05T16:23:40.427Z,39.58
2022-09-05T16:26:25.733Z,38.01
2022-09-05T16:29:25.279Z,39.18
2022-09-05T16:32:17.179Z,37.28
2022-09-05T16:34:57.078Z,38.61
2022-09-05T16:37:58.334Z,38.99
2022-09-05T16:40:30.922Z,39.30
2022-09-05T16:43:05.857Z,38.77
2022-09-05T16:45:46.615Z,38.82
2022-09-05T16:48:36.133Z,39.17
2022-09-05T16:51:15.658Z,39.07
2022-09-05T16:53:59.572Z,38.92
2022-09-05T16:56:35.008Z,39.15
2022-09-05T16:59:27.038Z,39.31
2022-09-05T17:02:07.524Z,38.91
2022-09-05T17:05:05.732Z,38.98
2022-09-05T17:07:53.442Z,39.31
2022-09-05T17:10:26.679Z,39.85
2022-09-05T17:12:54.311Z,40.07
2022-09-05T17:15:29.517Z,40.24
2022-09-05T17:18:20.487Z,40.66
2022-09-05T17:20:56.931Z,40.96
2022-09-05T17:26:20.291Z,41.21
2022-09-05T17:29:49.893Z,41.33
2022-09-05T17:32:33.355Z,42.06
2022-09-05T17:35:17.956Z,42.70
2022-09-05T17:38:11.604Z,43.52
2022-09-05T17:41:12.901Z,43.99
2022-09-05T17:43:40.813Z,45.09
2022-09-05T17:46:26.836Z,45.69
2022-09-05T17:49:18.239Z,47.45
2022-09-05T17:52:18.322Z,48.06
2022-09-05T17:54:52.299Z,49.07
2022-09-05T17:57:27.701Z,49.49
2022-09-05T18:00:12.258Z,49.42
2022-09-05T18:02:56.593Z,49.81
2022-09-05T18:05:54.535Z,49.96
2022-09-05T18:08:49.398Z,50.34
2022-09-05T18:11:25.184Z,49.91
2022-09-05T18:14:02.207Z,50.61
2022-09-05T18:19:34.237Z,50.94
2022-09-05T18:22:11.289Z,51.56
2022-09-05T18:24:45.354Z,51.22
2022-09-05T18:28:03.814Z,51.51
2022-09-05T18:30:10.935Z,50.66
2022-09-05T18:33:55.223Z,50.19
2022-09-05T18:35:55.771Z,50.75
2022-09-05T18:38:51.574Z,50.72
2022-09-05T18:41:18.816Z,51.30
2022-09-05T18:44:13.597Z,50.96
2022-09-05T18:46:50.665Z,52.05
2022-09-05T18:50:26.955Z,52.24
2022-09-05T18:52:33.403Z,51.96
2022-09-05T18:56:09.255Z,53.10
2022-09-05T18:58:05.594Z,53.26
2022-09-05T19:00:44.807Z,54.60
2022-09-05T19:03:28.829Z,52.69
2022-09-05T19:06:34.502Z,54.18
2022-09-05T19:08:55.973Z,54.31
2022-09-05T19:11:38.572Z,53.57
2022-09-05T19:14:43.595Z,54.09
2022-09-05T19:17:20.963Z,55.43
2022-09-05T19:20:32.927Z,55.09
2022-09-05T19:23:11.579Z,55.26
2022-09-05T19:25:41.220Z,55.53
2022-09-05T19:36:44.311Z,56.74
2022-09-05T19:37:03.614Z,57.33
2022-09-05T19:37:10.874Z,57.40
2022-09-05T19:42:20.064Z,58.69
2022-09-05T19:47:35.723Z,58.58
2022-09-05T19:47:47.154Z,59.25
2022-09-05T19:48:27.327Z,59.03
2022-09-05T19:51:16.108Z,59.33
2022-09-05T19:54:01.329Z,58.84
2022-09-05T19:56:37.648Z,59.45
2022-09-05T19:59:34.123Z,59.88
2022-09-05T20:02:02.445Z,60.97
2022-09-05T20:04:37.904Z,61.85
2022-09-05T20:07:31.567Z,62.80
2022-09-05T20:10:01.745Z,62.94
2022-09-05T20:12:32.209Z,63.40
2022-09-05T20:15:20.884Z,63.76
2022-09-05T20:17:47.418Z,64.31
2022-09-05T20:20:28.193Z,64.50
2022-09-05T20:23:05.620Z,64.40
2022-09-05T20:25:40.056Z,64.61
2022-09-05T20:28:10.757Z,64.79
2022-09-05T20:30:42.266Z,65.60
2022-09-05T20:33:38.120Z,65.86
2022-09-05T20:43:11.363Z,66.03
2022-09-05T20:43:20.808Z,66.48
2022-09-05T20:43:29.617Z,67.53
2022-09-05T20:44:48.240Z,67.55
2022-09-05T20:54:09.786Z,67.96
2022-09-05T20:54:14.957Z,68.43
2022-09-05T20:54:19.063Z,68.42
2022-09-05T20:56:30.924Z,68.08
2022-09-05T20:59:01.169Z,68.81
2022-09-05T21:01:30.343Z,69.29
2022-09-05T21:04:02.385Z,69.78
2022-09-05T21:06:33.552Z,70.01
2022-09-05T21:09:24.735Z,70.51
2022-09-05T21:11:58.650Z,70.86
2022-09-05T21:14:28.116Z,70.15
2022-09-05T21:17:04.597Z,70.61
2022-09-05T21:19:41.820Z,71.06
2022-09-05T21:22:23.941Z,70.10
2022-09-05T21:25:15.443Z,70.43
2022-09-05T21:27:43.135Z,71.05
2022-09-05T21:30:22.132Z,70.51
2022-09-05T21:32:55.364Z,71.03
2022-09-05T21:35:35.159Z,71.55
2022-09-05T21:38:02.208Z,71.10
2022-09-05T21:40:28.910Z,71.46
2022-09-05T21:47:33.202Z,72.25
2022-09-05T21:47:39.163Z,71.56
2022-09-05T21:48:34.532Z,71.02
2022-09-05T21:51:13.023Z,71.49
2022-09-05T21:55:10.709Z,72.04
2022-09-05T21:59:25.802Z,72.44
2022-09-05T21:59:46.038Z,72.59
2022-09-05T22:02:16.601Z,73.44
2022-09-05T22:04:43.362Z,73.69
2022-09-05T22:07:27.370Z,74.46
2022-09-05T22:09:59.812Z,74.57
2022-09-05T22:12:31.366Z,74.48
2022-09-05T22:14:59.368Z,74.58
2022-09-05T22:17:45.780Z,74.26
2022-09-05T22:20:16.887Z,74.73
2022-09-05T22:22:45.275Z,75.05
2022-09-05T22:25:35.628Z,75.64
2022-09-05T22:28:06.200Z,75.99
2022-09-05T22:30:35.743Z,75.49
2022-09-05T22:33:05.304Z,76.11
2022-09-05T22:35:33.672Z,76.87
2022-09-05T22:38:10.511Z,77.01
2022-09-05T22:40:40.024Z,77.32
2022-09-05T22:43:08.879Z,77.65
2022-09-05T22:45:37.248Z,77.44
2022-09-05T22:48:09.637Z,77.92
2022-09-05T22:50:37.169Z,77.68
2022-09-05T22:53:06.824Z,77.38
2022-09-05T22:55:38.392Z,78.20
2022-09-05T22:58:07.364Z,78.58
2022-09-05T23:00:34.632Z,78.20
2022-09-05T23:03:03.394Z,77.89
2022-09-05T23:05:29.923Z,78.03
2022-09-05T23:08:00.468Z,77.21
2022-09-05T23:10:27.795Z,78.50
2022-09-05T23:12:54.239Z,78.34
2022-09-05T23:15:20.769Z,78.65
2022-09-05T23:17:58.298Z,79.36
2022-09-05T23:20:27.129Z,79.36
2022-09-05T23:22:53.690Z,79.27
2022-09-05T23:25:21.445Z,79.60
2022-09-05T23:27:48.650Z,80.22
2022-09-05T23:30:15.309Z,80.63
2022-09-05T23:32:49.467Z,80.34
2022-09-05T23:35:17.923Z,80.54
2022-09-05T23:37:45.785Z,80.20
2022-09-05T23:40:14.016Z,79.98
2022-09-05T23:42:41.473Z,80.37
2022-09-05T23:45:09.089Z,80.40
2022-09-05T23:47:36.424Z,80.51
2022-09-05T23:50:03.764Z,80.21
2022-09-05T23:52:30.278Z,79.76
2022-09-05T23:54:56.702Z,80.49
2022-09-05T23:57:23.910Z,80.83
2022-09-05T23:59:52.381Z,80.48
